sensor_id;sensor_type;location;lat;lon;timestamp;P1;durP1;ratioP1;P2;durP2;ratioP2
11048;SDS011;5577;42.706;23.160;2023-02-28T00:02:15;75.67;;;27.07;;
11048;SDS011;5577;42.706;23.160;2023-02-28T00:05:01;92.43;;;26.00;;
11048;SDS011;5577;42.706;23.160;2023-02-28T00:07:47;166.50;;;26.60;;
11048;SDS011;5577;42.706;23.160;2023-02-28T00:10:32;357.77;;;35.23;;
11048;SDS011;5577;42.706;23.160;2023-02-28T00:13:16;321.00;;;29.37;;
11048;SDS011;5577;42.706;23.160;2023-02-28T00:16:05;182.67;;;25.33;;
11048;SDS011;5577;42.706;23.160;2023-02-28T00:18:51;102.13;;;22.63;;
11048;SDS011;5577;42.706;23.160;2023-02-28T00:21:35;58.50;;;20.77;;
11048;SDS011;5577;42.706;23.160;2023-02-28T00:24:18;37.83;;;19.83;;
11048;SDS011;5577;42.706;23.160;2023-02-28T00:27:02;36.33;;;20.93;;
11048;SDS011;5577;42.706;23.160;2023-02-28T00:29:46;43.20;;;26.17;;
11048;SDS011;5577;42.706;23.160;2023-02-28T00:32:31;43.83;;;25.33;;
11048;SDS011;5577;42.706;23.160;2023-02-28T00:35:15;40.60;;;23.73;;
11048;SDS011;5577;42.706;23.160;2023-02-28T00:38:00;40.50;;;23.97;;
11048;SDS011;5577;42.706;23.160;2023-02-28T00:40:44;35.17;;;19.93;;
11048;SDS011;5577;42.706;23.160;2023-02-28T00:43:28;90.93;;;21.97;;
11048;SDS011;5577;42.706;23.160;2023-02-28T00:46:12;179.57;;;25.00;;
11048;SDS011;5577;42.706;23.160;2023-02-28T00:48:56;213.50;;;27.17;;
11048;SDS011;5577;42.706;23.160;2023-02-28T00:51:40;39.20;;;17.20;;
11048;SDS011;5577;42.706;23.160;2023-02-28T00:54:24;89.17;;;21.00;;
11048;SDS011;5577;42.706;23.160;2023-02-28T00:57:09;44.10;;;17.80;;
11048;SDS011;5577;42.706;23.160;2023-02-28T00:59:53;55.53;;;23.67;;
11048;SDS011;5577;42.706;23.160;2023-02-28T01:02:40;32.90;;;19.50;;
11048;SDS011;5577;42.706;23.160;2023-02-28T01:05:24;34.87;;;20.83;;
11048;SDS011;5577;42.706;23.160;2023-02-28T01:08:08;31.77;;;19.40;;
11048;SDS011;5577;42.706;23.160;2023-02-28T01:10:51;36.67;;;21.70;;
11048;SDS011;5577;42.706;23.160;2023-02-28T01:13:36;50.27;;;27.20;;
11048;SDS011;5577;42.706;23.160;2023-02-28T01:16:20;49.57;;;27.37;;
11048;SDS011;5577;42.706;23.160;2023-02-28T01:19:04;37.80;;;22.40;;
11048;SDS011;5577;42.706;23.160;2023-02-28T01:21:48;33.27;;;20.60;;
11048;SDS011;5577;42.706;23.160;2023-02-28T01:24:32;38.50;;;22.23;;
11048;SDS011;5577;42.706;23.160;2023-02-28T01:27:16;40.23;;;23.47;;
11048;SDS011;5577;42.706;23.160;2023-02-28T01:30:00;33.93;;;21.43;;
11048;SDS011;5577;42.706;23.160;2023-02-28T01:32:44;24.60;;;15.87;;
11048;SDS011;5577;42.706;23.160;2023-02-28T01:35:28;20.50;;;12.83;;
11048;SDS011;5577;42.706;23.160;2023-02-28T01:38:16;19.57;;;12.70;;
11048;SDS011;5577;42.706;23.160;2023-02-28T01:41:00;20.57;;;13.30;;
11048;SDS011;5577;42.706;23.160;2023-02-28T01:46:29;25.83;;;14.03;;
11048;SDS011;5577;42.706;23.160;2023-02-28T01:49:18;21.40;;;14.03;;
11048;SDS011;5577;42.706;23.160;2023-02-28T01:52:03;21.47;;;12.23;;
11048;SDS011;5577;42.706;23.160;2023-02-28T01:54:49;19.27;;;11.43;;
11048;SDS011;5577;42.706;23.160;2023-02-28T01:57:37;26.77;;;15.03;;
11048;SDS011;5577;42.706;23.160;2023-02-28T02:00:30;33.30;;;15.97;;
11048;SDS011;5577;42.706;23.160;2023-02-28T02:03:16;38.10;;;17.43;;
11048;SDS011;5577;42.706;23.160;2023-02-28T02:06:02;38.03;;;17.83;;
11048;SDS011;5577;42.706;23.160;2023-02-28T02:08:47;136.17;;;24.50;;
11048;SDS011;5577;42.706;23.160;2023-02-28T02:11:31;212.40;;;26.77;;
11048;SDS011;5577;42.706;23.160;2023-02-28T02:14:20;470.20;;;35.67;;
11048;SDS011;5577;42.706;23.160;2023-02-28T02:41:28;361.70;;;28.57;;
11048;SDS011;5577;42.706;23.160;2023-02-28T02:44:26;196.03;;;23.73;;
11048;SDS011;5577;42.706;23.160;2023-02-28T02:47:15;204.07;;;24.47;;
11048;SDS011;5577;42.706;23.160;2023-02-28T02:50:05;177.43;;;24.37;;
11048;SDS011;5577;42.706;23.160;2023-02-28T02:52:55;146.13;;;22.80;;
11048;SDS011;5577;42.706;23.160;2023-02-28T02:55:44;193.70;;;28.10;;
11048;SDS011;5577;42.706;23.160;2023-02-28T02:58:38;222.43;;;25.80;;
11048;SDS011;5577;42.706;23.160;2023-02-28T03:01:25;292.00;;;31.67;;
11048;SDS011;5577;42.706;23.160;2023-02-28T03:04:16;161.40;;;22.13;;
11048;SDS011;5577;42.706;23.160;2023-02-28T03:07:02;143.70;;;20.90;;
11048;SDS011;5577;42.706;23.160;2023-02-28T03:09:53;312.03;;;26.67;;
11048;SDS011;5577;42.706;23.160;2023-02-28T03:12:45;164.03;;;22.30;;
11048;SDS011;5577;42.706;23.160;2023-02-28T03:15:49;211.67;;;22.93;;
11048;SDS011;5577;42.706;23.160;2023-02-28T03:25:30;160.20;;;23.30;;
11048;SDS011;5577;42.706;23.160;2023-02-28T03:31:20;146.33;;;20.37;;
11048;SDS011;5577;42.706;23.160;2023-02-28T03:37:16;86.57;;;20.77;;
11048;SDS011;5577;42.706;23.160;2023-02-28T03:40:05;158.73;;;22.80;;
11048;SDS011;5577;42.706;23.160;2023-02-28T03:42:57;148.63;;;20.53;;
11048;SDS011;5577;42.706;23.160;2023-02-28T03:45:46;146.63;;;20.57;;
11048;SDS011;5577;42.706;23.160;2023-02-28T03:48:35;159.23;;;21.67;;
11048;SDS011;5577;42.706;23.160;2023-02-28T03:51:34;129.33;;;20.37;;
11048;SDS011;5577;42.706;23.160;2023-02-28T03:54:22;131.47;;;21.30;;
11048;SDS011;5577;42.706;23.160;2023-02-28T03:57:18;176.90;;;23.23;;
11048;SDS011;5577;42.706;23.160;2023-02-28T04:00:19;109.07;;;18.57;;
11048;SDS011;5577;42.706;23.160;2023-02-28T04:03:09;93.73;;;25.33;;
11048;SDS011;5577;42.706;23.160;2023-02-28T04:05:53;94.90;;;17.70;;
11048;SDS011;5577;42.706;23.160;2023-02-28T04:08:39;102.67;;;17.47;;
11048;SDS011;5577;42.706;23.160;2023-02-28T04:14:13;78.40;;;17.63;;
11048;SDS011;5577;42.706;23.160;2023-02-28T04:16:57;57.07;;;16.43;;
11048;SDS011;5577;42.706;23.160;2023-02-28T04:19:41;62.00;;;16.13;;
11048;SDS011;5577;42.706;23.160;2023-02-28T04:22:25;36.77;;;14.80;;
11048;SDS011;5577;42.706;23.160;2023-02-28T04:25:12;63.80;;;16.53;;
11048;SDS011;5577;42.706;23.160;2023-02-28T04:27:55;151.57;;;20.47;;
11048;SDS011;5577;42.706;23.160;2023-02-28T04:30:39;44.27;;;16.73;;
11048;SDS011;5577;42.706;23.160;2023-02-28T04:33:23;56.67;;;16.00;;
11048;SDS011;5577;42.706;23.160;2023-02-28T04:36:07;60.90;;;19.60;;
11048;SDS011;5577;42.706;23.160;2023-02-28T04:38:52;49.27;;;16.03;;
11048;SDS011;5577;42.706;23.160;2023-02-28T04:41:36;81.23;;;18.90;;
11048;SDS011;5577;42.706;23.160;2023-02-28T04:44:21;44.73;;;16.50;;
11048;SDS011;5577;42.706;23.160;2023-02-28T04:47:06;105.83;;;17.80;;
11048;SDS011;5577;42.706;23.160;2023-02-28T04:49:50;62.97;;;16.43;;
11048;SDS011;5577;42.706;23.160;2023-02-28T04:52:34;45.40;;;16.37;;
11048;SDS011;5577;42.706;23.160;2023-02-28T04:55:17;46.07;;;15.97;;
11048;SDS011;5577;42.706;23.160;2023-02-28T04:58:01;52.40;;;16.47;;
11048;SDS011;5577;42.706;23.160;2023-02-28T05:00:46;65.77;;;16.97;;
11048;SDS011;5577;42.706;23.160;2023-02-28T05:03:30;69.20;;;17.63;;
11048;SDS011;5577;42.706;23.160;2023-02-28T05:06:14;60.77;;;17.00;;
11048;SDS011;5577;42.706;23.160;2023-02-28T05:08:58;43.90;;;16.57;;
11048;SDS011;5577;42.706;23.160;2023-02-28T05:11:42;54.70;;;15.77;;
11048;SDS011;5577;42.706;23.160;2023-02-28T05:14:26;53.67;;;16.40;;
11048;SDS011;5577;42.706;23.160;2023-02-28T05:17:10;67.90;;;16.03;;
11048;SDS011;5577;42.706;23.160;2023-02-28T05:19:54;114.83;;;18.87;;
11048;SDS011;5577;42.706;23.160;2023-02-28T05:22:39;152.87;;;19.90;;
11048;SDS011;5577;42.706;23.160;2023-02-28T05:25:24;67.30;;;16.70;;
11048;SDS011;5577;42.706;23.160;2023-02-28T05:28:08;167.57;;;20.67;;
11048;SDS011;5577;42.706;23.160;2023-02-28T05:30:52;86.20;;;19.20;;
11048;SDS011;5577;42.706;23.160;2023-02-28T05:33:36;117.17;;;18.63;;
11048;SDS011;5577;42.706;23.160;2023-02-28T05:36:20;80.60;;;17.73;;
11048;SDS011;5577;42.706;23.160;2023-02-28T05:39:05;120.73;;;18.50;;
11048;SDS011;5577;42.706;23.160;2023-02-28T05:41:51;184.37;;;20.50;;
11048;SDS011;5577;42.706;23.160;2023-02-28T05:44:35;153.97;;;22.03;;
11048;SDS011;5577;42.706;23.160;2023-02-28T05:47:19;343.30;;;27.53;;
11048;SDS011;5577;42.706;23.160;2023-02-28T05:50:04;154.77;;;19.40;;
11048;SDS011;5577;42.706;23.160;2023-02-28T05:52:52;127.10;;;17.53;;
11048;SDS011;5577;42.706;23.160;2023-02-28T05:55:36;143.87;;;20.20;;
11048;SDS011;5577;42.706;23.160;2023-02-28T05:58:20;165.03;;;22.33;;
11048;SDS011;5577;42.706;23.160;2023-02-28T06:04:22;177.43;;;22.80;;
11048;SDS011;5577;42.706;23.160;2023-02-28T06:07:06;190.87;;;23.03;;
11048;SDS011;5577;42.706;23.160;2023-02-28T06:09:51;257.93;;;26.83;;
11048;SDS011;5577;42.706;23.160;2023-02-28T06:12:34;169.30;;;21.33;;
11048;SDS011;5577;42.706;23.160;2023-02-28T06:15:18;222.10;;;24.33;;
11048;SDS011;5577;42.706;23.160;2023-02-28T06:18:04;244.13;;;23.30;;
11048;SDS011;5577;42.706;23.160;2023-02-28T06:20:52;233.70;;;24.97;;
11048;SDS011;5577;42.706;23.160;2023-02-28T06:23:37;202.00;;;23.60;;
11048;SDS011;5577;42.706;23.160;2023-02-28T06:26:21;192.43;;;28.47;;
11048;SDS011;5577;42.706;23.160;2023-02-28T06:29:06;118.53;;;25.57;;
11048;SDS011;5577;42.706;23.160;2023-02-28T06:31:51;519.00;;;40.23;;
11048;SDS011;5577;42.706;23.160;2023-02-28T06:34:34;173.80;;;25.73;;
11048;SDS011;5577;42.706;23.160;2023-02-28T06:37:19;167.47;;;24.40;;
11048;SDS011;5577;42.706;23.160;2023-02-28T06:40:03;132.70;;;23.67;;
11048;SDS011;5577;42.706;23.160;2023-02-28T06:42:50;134.27;;;23.13;;
11048;SDS011;5577;42.706;23.160;2023-02-28T06:45:34;149.47;;;24.70;;
11048;SDS011;5577;42.706;23.160;2023-02-28T06:48:19;81.00;;;22.00;;
11048;SDS011;5577;42.706;23.160;2023-02-28T06:53:54;140.47;;;26.77;;
11048;SDS011;5577;42.706;23.160;2023-02-28T06:56:38;121.33;;;26.97;;
11048;SDS011;5577;42.706;23.160;2023-02-28T06:59:23;121.87;;;26.57;;
11048;SDS011;5577;42.706;23.160;2023-02-28T07:02:07;87.07;;;23.53;;
11048;SDS011;5577;42.706;23.160;2023-02-28T07:04:52;110.47;;;25.77;;
11048;SDS011;5577;42.706;23.160;2023-02-28T07:07:36;104.80;;;25.70;;
11048;SDS011;5577;42.706;23.160;2023-02-28T07:10:21;115.30;;;26.47;;
11048;SDS011;5577;42.706;23.160;2023-02-28T07:13:05;83.03;;;23.40;;
11048;SDS011;5577;42.706;23.160;2023-02-28T07:15:54;103.70;;;25.80;;
11048;SDS011;5577;42.706;23.160;2023-02-28T07:18:43;77.50;;;26.70;;
11048;SDS011;5577;42.706;23.160;2023-02-28T07:21:27;65.83;;;25.90;;
11048;SDS011;5577;42.706;23.160;2023-02-28T07:24:11;81.20;;;24.77;;
11048;SDS011;5577;42.706;23.160;2023-02-28T07:26:55;76.53;;;25.00;;
11048;SDS011;5577;42.706;23.160;2023-02-28T07:29:39;119.23;;;27.50;;
11048;SDS011;5577;42.706;23.160;2023-02-28T07:32:22;120.70;;;27.17;;
11048;SDS011;5577;42.706;23.160;2023-02-28T07:35:06;73.53;;;27.50;;
11048;SDS011;5577;42.706;23.160;2023-02-28T07:37:51;82.70;;;27.27;;
11048;SDS011;5577;42.706;23.160;2023-02-28T07:40:35;77.23;;;27.47;;
11048;SDS011;5577;42.706;23.160;2023-02-28T07:43:19;85.20;;;28.80;;
11048;SDS011;5577;42.706;23.160;2023-02-28T07:46:05;68.97;;;28.17;;
11048;SDS011;5577;42.706;23.160;2023-02-28T07:48:51;71.77;;;28.20;;
11048;SDS011;5577;42.706;23.160;2023-02-28T07:51:37;72.93;;;28.73;;
11048;SDS011;5577;42.706;23.160;2023-02-28T07:54:21;67.73;;;28.37;;
11048;SDS011;5577;42.706;23.160;2023-02-28T07:57:05;72.57;;;27.67;;
11048;SDS011;5577;42.706;23.160;2023-02-28T07:59:49;76.37;;;28.00;;
11048;SDS011;5577;42.706;23.160;2023-02-28T08:02:33;69.50;;;27.40;;
11048;SDS011;5577;42.706;23.160;2023-02-28T08:05:17;85.07;;;28.80;;
11048;SDS011;5577;42.706;23.160;2023-02-28T08:08:01;75.30;;;28.83;;
11048;SDS011;5577;42.706;23.160;2023-02-28T08:10:45;83.43;;;27.77;;
11048;SDS011;5577;42.706;23.160;2023-02-28T08:13:29;62.10;;;26.63;;
11048;SDS011;5577;42.706;23.160;2023-02-28T08:16:14;66.07;;;27.93;;
11048;SDS011;5577;42.706;23.160;2023-02-28T08:19:00;60.77;;;27.60;;
11048;SDS011;5577;42.706;23.160;2023-02-28T08:21:44;62.73;;;27.23;;
11048;SDS011;5577;42.706;23.160;2023-02-28T08:24:28;62.90;;;28.90;;
11048;SDS011;5577;42.706;23.160;2023-02-28T08:27:12;52.83;;;26.80;;
11048;SDS011;5577;42.706;23.160;2023-02-28T08:29:56;63.47;;;27.77;;
11048;SDS011;5577;42.706;23.160;2023-02-28T08:32:40;67.70;;;28.20;;
11048;SDS011;5577;42.706;23.160;2023-02-28T08:35:24;60.83;;;27.93;;
11048;SDS011;5577;42.706;23.160;2023-02-28T08:38:08;60.80;;;28.93;;
11048;SDS011;5577;42.706;23.160;2023-02-28T08:40:59;60.73;;;28.97;;
11048;SDS011;5577;42.706;23.160;2023-02-28T08:43:44;65.50;;;30.43;;
11048;SDS011;5577;42.706;23.160;2023-02-28T08:46:28;67.77;;;30.40;;
11048;SDS011;5577;42.706;23.160;2023-02-28T08:49:12;68.70;;;31.53;;
11048;SDS011;5577;42.706;23.160;2023-02-28T08:51:56;73.27;;;30.10;;
11048;SDS011;5577;42.706;23.160;2023-02-28T08:54:40;65.50;;;30.43;;
11048;SDS011;5577;42.706;23.160;2023-02-28T08:57:24;69.23;;;31.07;;
11048;SDS011;5577;42.706;23.160;2023-02-28T09:00:09;72.63;;;31.90;;
11048;SDS011;5577;42.706;23.160;2023-02-28T09:02:57;69.13;;;32.23;;
11048;SDS011;5577;42.706;23.160;2023-02-28T09:05:41;66.57;;;30.63;;
11048;SDS011;5577;42.706;23.160;2023-02-28T09:08:25;65.53;;;31.53;;
11048;SDS011;5577;42.706;23.160;2023-02-28T09:11:11;68.77;;;31.30;;
11048;SDS011;5577;42.706;23.160;2023-02-28T09:13:55;66.70;;;31.90;;
11048;SDS011;5577;42.706;23.160;2023-02-28T09:16:40;64.70;;;31.70;;
11048;SDS011;5577;42.706;23.160;2023-02-28T09:19:24;70.17;;;33.33;;
11048;SDS011;5577;42.706;23.160;2023-02-28T09:22:08;71.27;;;33.03;;
11048;SDS011;5577;42.706;23.160;2023-02-28T09:24:53;72.57;;;32.47;;
11048;SDS011;5577;42.706;23.160;2023-02-28T09:27:37;66.40;;;32.03;;
11048;SDS011;5577;42.706;23.160;2023-02-28T09:30:21;67.80;;;32.37;;
11048;SDS011;5577;42.706;23.160;2023-02-28T09:33:05;65.07;;;31.47;;
11048;SDS011;5577;42.706;23.160;2023-02-28T09:35:49;67.63;;;33.80;;
11048;SDS011;5577;42.706;23.160;2023-02-28T09:38:34;69.93;;;33.83;;
11048;SDS011;5577;42.706;23.160;2023-02-28T09:41:20;68.03;;;32.73;;
11048;SDS011;5577;42.706;23.160;2023-02-28T09:44:09;74.20;;;34.77;;
11048;SDS011;5577;42.706;23.160;2023-02-28T09:47:00;72.10;;;33.77;;
11048;SDS011;5577;42.706;23.160;2023-02-28T09:49:57;66.33;;;33.67;;
11048;SDS011;5577;42.706;23.160;2023-02-28T09:52:46;70.57;;;33.83;;
11048;SDS011;5577;42.706;23.160;2023-02-28T09:55:36;70.57;;;34.23;;
11048;SDS011;5577;42.706;23.160;2023-02-28T09:58:42;70.37;;;33.57;;
11048;SDS011;5577;42.706;23.160;2023-02-28T10:01:37;69.53;;;34.87;;
11048;SDS011;5577;42.706;23.160;2023-02-28T10:10:42;64.87;;;32.83;;
11048;SDS011;5577;42.706;23.160;2023-02-28T10:13:43;72.40;;;34.40;;
11048;SDS011;5577;42.706;23.160;2023-02-28T10:16:41;69.57;;;35.27;;
11048;SDS011;5577;42.706;23.160;2023-02-28T10:22:37;63.60;;;33.17;;
11048;SDS011;5577;42.706;23.160;2023-02-28T10:25:38;68.57;;;33.57;;
11048;SDS011;5577;42.706;23.160;2023-02-28T10:28:23;72.87;;;33.93;;
11048;SDS011;5577;42.706;23.160;2023-02-28T10:31:14;59.77;;;33.23;;
11048;SDS011;5577;42.706;23.160;2023-02-28T10:34:01;57.73;;;31.57;;
11048;SDS011;5577;42.706;23.160;2023-02-28T10:36:47;62.57;;;33.70;;
11048;SDS011;5577;42.706;23.160;2023-02-28T10:39:34;61.10;;;33.03;;
11048;SDS011;5577;42.706;23.160;2023-02-28T10:42:29;60.47;;;33.27;;
11048;SDS011;5577;42.706;23.160;2023-02-28T10:45:15;54.63;;;31.70;;
11048;SDS011;5577;42.706;23.160;2023-02-28T10:48:01;59.00;;;32.43;;
11048;SDS011;5577;42.706;23.160;2023-02-28T10:50:57;51.70;;;30.93;;
11048;SDS011;5577;42.706;23.160;2023-02-28T10:56:26;50.90;;;31.13;;
11048;SDS011;5577;42.706;23.160;2023-02-28T11:01:58;52.07;;;30.43;;
11048;SDS011;5577;42.706;23.160;2023-02-28T11:04:42;53.70;;;30.30;;
11048;SDS011;5577;42.706;23.160;2023-02-28T11:07:26;47.20;;;29.73;;
11048;SDS011;5577;42.706;23.160;2023-02-28T11:10:16;50.50;;;29.53;;
11048;SDS011;5577;42.706;23.160;2023-02-28T11:13:04;51.43;;;28.93;;
11048;SDS011;5577;42.706;23.160;2023-02-28T11:15:51;47.43;;;28.17;;
11048;SDS011;5577;42.706;23.160;2023-02-28T11:21:36;48.97;;;28.33;;
11048;SDS011;5577;42.706;23.160;2023-02-28T11:24:28;49.73;;;28.00;;
11048;SDS011;5577;42.706;23.160;2023-02-28T11:36:24;40.17;;;24.67;;
11048;SDS011;5577;42.706;23.160;2023-02-28T11:39:11;44.50;;;25.83;;
11048;SDS011;5577;42.706;23.160;2023-02-28T11:50:58;38.40;;;23.43;;
11048;SDS011;5577;42.706;23.160;2023-02-28T11:54:22;38.40;;;22.47;;
11048;SDS011;5577;42.706;23.160;2023-02-28T12:03:45;30.77;;;15.90;;
11048;SDS011;5577;42.706;23.160;2023-02-28T12:06:49;31.60;;;15.83;;
11048;SDS011;5577;42.706;23.160;2023-02-28T12:10:02;30.27;;;16.37;;
11048;SDS011;5577;42.706;23.160;2023-02-28T12:13:19;31.00;;;15.87;;
11048;SDS011;5577;42.706;23.160;2023-02-28T12:27:37;26.50;;;14.40;;
11048;SDS011;5577;42.706;23.160;2023-02-28T12:30:25;26.37;;;15.87;;
11048;SDS011;5577;42.706;23.160;2023-02-28T12:33:14;30.10;;;15.43;;
11048;SDS011;5577;42.706;23.160;2023-02-28T12:36:05;24.67;;;13.80;;
11048;SDS011;5577;42.706;23.160;2023-02-28T12:39:00;27.03;;;15.00;;
11048;SDS011;5577;42.706;23.160;2023-02-28T12:41:51;28.00;;;15.67;;
11048;SDS011;5577;42.706;23.160;2023-02-28T12:44:48;26.93;;;14.60;;
11048;SDS011;5577;42.706;23.160;2023-02-28T12:47:35;24.97;;;14.73;;
11048;SDS011;5577;42.706;23.160;2023-02-28T12:50:24;26.43;;;13.60;;
11048;SDS011;5577;42.706;23.160;2023-02-28T12:53:15;26.30;;;13.40;;
11048;SDS011;5577;42.706;23.160;2023-02-28T12:56:22;41.17;;;28.63;;
11048;SDS011;5577;42.706;23.160;2023-02-28T12:59:32;28.53;;;15.60;;
11048;SDS011;5577;42.706;23.160;2023-02-28T13:11:48;27.50;;;15.00;;
11048;SDS011;5577;42.706;23.160;2023-02-28T13:14:37;27.43;;;14.30;;
11048;SDS011;5577;42.706;23.160;2023-02-28T13:17:23;28.47;;;13.53;;
11048;SDS011;5577;42.706;23.160;2023-02-28T13:20:16;32.47;;;17.03;;
11048;SDS011;5577;42.706;23.160;2023-02-28T13:23:03;29.87;;;14.67;;
11048;SDS011;5577;42.706;23.160;2023-02-28T13:25:50;28.03;;;12.10;;
11048;SDS011;5577;42.706;23.160;2023-02-28T13:37:37;23.77;;;11.53;;
11048;SDS011;5577;42.706;23.160;2023-02-28T13:40:27;27.77;;;12.00;;
11048;SDS011;5577;42.706;23.160;2023-02-28T13:43:20;26.43;;;12.73;;
11048;SDS011;5577;42.706;23.160;2023-02-28T13:46:13;24.77;;;11.07;;
11048;SDS011;5577;42.706;23.160;2023-02-28T13:49:17;24.97;;;12.50;;
11048;SDS011;5577;42.706;23.160;2023-02-28T13:52:17;18.13;;;10.73;;
11048;SDS011;5577;42.706;23.160;2023-02-28T14:04:11;28.37;;;14.47;;
11048;SDS011;5577;42.706;23.160;2023-02-28T14:06:58;24.43;;;12.57;;
11048;SDS011;5577;42.706;23.160;2023-02-28T14:09:49;23.40;;;12.47;;
11048;SDS011;5577;42.706;23.160;2023-02-28T14:16:13;25.07;;;15.30;;
11048;SDS011;5577;42.706;23.160;2023-02-28T14:19:36;21.73;;;11.60;;
11048;SDS011;5577;42.706;23.160;2023-02-28T14:22:22;26.63;;;12.93;;
11048;SDS011;5577;42.706;23.160;2023-02-28T14:25:33;23.43;;;12.53;;
11048;SDS011;5577;42.706;23.160;2023-02-28T14:37:57;18.33;;;9.87;;
11048;SDS011;5577;42.706;23.160;2023-02-28T14:40:41;23.27;;;11.63;;
11048;SDS011;5577;42.706;23.160;2023-02-28T14:43:26;19.27;;;11.33;;
11048;SDS011;5577;42.706;23.160;2023-02-28T14:46:11;20.50;;;10.80;;
11048;SDS011;5577;42.706;23.160;2023-02-28T14:48:57;21.60;;;10.83;;
11048;SDS011;5577;42.706;23.160;2023-02-28T14:51:40;25.53;;;11.87;;
11048;SDS011;5577;42.706;23.160;2023-02-28T14:54:25;20.40;;;10.73;;
11048;SDS011;5577;42.706;23.160;2023-02-28T14:57:26;23.87;;;10.83;;
11048;SDS011;5577;42.706;23.160;2023-02-28T15:03:38;20.20;;;10.03;;
11048;SDS011;5577;42.706;23.160;2023-02-28T15:06:19;21.67;;;10.20;;
11048;SDS011;5577;42.706;23.160;2023-02-28T15:09:08;21.27;;;10.00;;
11048;SDS011;5577;42.706;23.160;2023-02-28T15:12:00;20.40;;;10.07;;
11048;SDS011;5577;42.706;23.160;2023-02-28T15:14:44;20.70;;;10.43;;
11048;SDS011;5577;42.706;23.160;2023-02-28T15:17:28;22.40;;;10.53;;
11048;SDS011;5577;42.706;23.160;2023-02-28T15:20:13;19.87;;;11.07;;
11048;SDS011;5577;42.706;23.160;2023-02-28T15:22:58;20.27;;;10.83;;
11048;SDS011;5577;42.706;23.160;2023-02-28T15:25:43;19.23;;;10.77;;
11048;SDS011;5577;42.706;23.160;2023-02-28T15:28:27;22.17;;;10.93;;
11048;SDS011;5577;42.706;23.160;2023-02-28T15:31:20;23.07;;;11.50;;
11048;SDS011;5577;42.706;23.160;2023-02-28T15:34:20;18.33;;;10.70;;
11048;SDS011;5577;42.706;23.160;2023-02-28T15:37:24;24.33;;;12.97;;
11048;SDS011;5577;42.706;23.160;2023-02-28T15:43:44;23.77;;;12.17;;
11048;SDS011;5577;42.706;23.160;2023-02-28T15:46:12;21.33;;;12.07;;
11048;SDS011;5577;42.706;23.160;2023-02-28T15:48:58;19.87;;;13.60;;
11048;SDS011;5577;42.706;23.160;2023-02-28T15:51:42;22.73;;;13.60;;
11048;SDS011;5577;42.706;23.160;2023-02-28T15:54:28;21.03;;;13.47;;
11048;SDS011;5577;42.706;23.160;2023-02-28T15:57:17;16.80;;;10.97;;
11048;SDS011;5577;42.706;23.160;2023-02-28T16:00:06;18.50;;;10.03;;
11048;SDS011;5577;42.706;23.160;2023-02-28T16:02:55;19.53;;;9.23;;
11048;SDS011;5577;42.706;23.160;2023-02-28T16:05:39;17.90;;;11.37;;
11048;SDS011;5577;42.706;23.160;2023-02-28T16:08:23;19.67;;;11.70;;
11048;SDS011;5577;42.706;23.160;2023-02-28T16:11:09;18.70;;;11.63;;
11048;SDS011;5577;42.706;23.160;2023-02-28T16:13:53;18.17;;;11.93;;
11048;SDS011;5577;42.706;23.160;2023-02-28T16:16:41;18.20;;;10.60;;
11048;SDS011;5577;42.706;23.160;2023-02-28T16:19:26;17.97;;;11.33;;
11048;SDS011;5577;42.706;23.160;2023-02-28T16:22:10;15.17;;;10.13;;
11048;SDS011;5577;42.706;23.160;2023-02-28T16:24:54;17.87;;;10.70;;
11048;SDS011;5577;42.706;23.160;2023-02-28T16:27:38;16.83;;;9.63;;
11048;SDS011;5577;42.706;23.160;2023-02-28T16:30:24;15.83;;;11.00;;
11048;SDS011;5577;42.706;23.160;2023-02-28T16:33:10;17.60;;;10.40;;
11048;SDS011;5577;42.706;23.160;2023-02-28T16:35:54;15.63;;;10.27;;
11048;SDS011;5577;42.706;23.160;2023-02-28T16:38:38;14.80;;;8.90;;
11048;SDS011;5577;42.706;23.160;2023-02-28T16:41:23;17.30;;;9.60;;
11048;SDS011;5577;42.706;23.160;2023-02-28T16:44:10;19.10;;;8.13;;
11048;SDS011;5577;42.706;23.160;2023-02-28T16:46:59;13.67;;;7.33;;
11048;SDS011;5577;42.706;23.160;2023-02-28T16:49:44;12.47;;;8.23;;
11048;SDS011;5577;42.706;23.160;2023-02-28T16:52:28;13.10;;;7.70;;
11048;SDS011;5577;42.706;23.160;2023-02-28T16:55:12;15.67;;;9.77;;
11048;SDS011;5577;42.706;23.160;2023-02-28T16:57:57;25.70;;;18.13;;
11048;SDS011;5577;42.706;23.160;2023-02-28T17:00:42;31.20;;;20.23;;
11048;SDS011;5577;42.706;23.160;2023-02-28T17:03:27;34.80;;;27.23;;
11048;SDS011;5577;42.706;23.160;2023-02-28T17:06:16;25.17;;;17.63;;
11048;SDS011;5577;42.706;23.160;2023-02-28T17:09:17;22.17;;;13.97;;
11048;SDS011;5577;42.706;23.160;2023-02-28T17:12:06;24.17;;;13.07;;
11048;SDS011;5577;42.706;23.160;2023-02-28T17:14:50;18.40;;;11.50;;
11048;SDS011;5577;42.706;23.160;2023-02-28T17:17:34;15.07;;;10.07;;
11048;SDS011;5577;42.706;23.160;2023-02-28T17:20:19;15.43;;;9.90;;
11048;SDS011;5577;42.706;23.160;2023-02-28T17:23:10;13.13;;;9.13;;
11048;SDS011;5577;42.706;23.160;2023-02-28T17:25:54;13.83;;;8.67;;
11048;SDS011;5577;42.706;23.160;2023-02-28T17:28:38;13.00;;;8.90;;
11048;SDS011;5577;42.706;23.160;2023-02-28T17:31:23;14.87;;;9.90;;
11048;SDS011;5577;42.706;23.160;2023-02-28T17:34:08;12.93;;;9.00;;
11048;SDS011;5577;42.706;23.160;2023-02-28T17:36:52;12.90;;;8.97;;
11048;SDS011;5577;42.706;23.160;2023-02-28T17:39:36;13.17;;;9.30;;
11048;SDS011;5577;42.706;23.160;2023-02-28T17:42:20;13.77;;;9.50;;
11048;SDS011;5577;42.706;23.160;2023-02-28T17:45:05;12.83;;;8.10;;
11048;SDS011;5577;42.706;23.160;2023-02-28T17:47:49;11.90;;;8.33;;
11048;SDS011;5577;42.706;23.160;2023-02-28T17:50:34;11.33;;;7.40;;
11048;SDS011;5577;42.706;23.160;2023-02-28T17:53:18;12.70;;;7.17;;
11048;SDS011;5577;42.706;23.160;2023-02-28T17:56:02;10.07;;;6.83;;
11048;SDS011;5577;42.706;23.160;2023-02-28T17:58:46;11.60;;;8.13;;
11048;SDS011;5577;42.706;23.160;2023-02-28T18:01:31;11.77;;;7.97;;
11048;SDS011;5577;42.706;23.160;2023-02-28T18:04:15;14.27;;;9.60;;
11048;SDS011;5577;42.706;23.160;2023-02-28T18:06:59;13.33;;;8.40;;
11048;SDS011;5577;42.706;23.160;2023-02-28T18:09:43;11.00;;;7.70;;
11048;SDS011;5577;42.706;23.160;2023-02-28T18:12:27;11.23;;;8.50;;
11048;SDS011;5577;42.706;23.160;2023-02-28T18:15:11;10.97;;;7.57;;
11048;SDS011;5577;42.706;23.160;2023-02-28T18:17:55;10.50;;;8.27;;
11048;SDS011;5577;42.706;23.160;2023-02-28T18:20:39;11.70;;;8.47;;
11048;SDS011;5577;42.706;23.160;2023-02-28T18:23:23;12.57;;;7.60;;
11048;SDS011;5577;42.706;23.160;2023-02-28T18:26:07;12.23;;;8.17;;
11048;SDS011;5577;42.706;23.160;2023-02-28T18:28:51;10.07;;;7.67;;
11048;SDS011;5577;42.706;23.160;2023-02-28T18:31:35;9.27;;;7.30;;
11048;SDS011;5577;42.706;23.160;2023-02-28T18:34:19;9.23;;;7.57;;
11048;SDS011;5577;42.706;23.160;2023-02-28T18:37:04;8.20;;;6.80;;
11048;SDS011;5577;42.706;23.160;2023-02-28T18:39:48;7.73;;;6.93;;
11048;SDS011;5577;42.706;23.160;2023-02-28T18:42:32;8.10;;;6.70;;
11048;SDS011;5577;42.706;23.160;2023-02-28T18:45:16;11.53;;;7.90;;
11048;SDS011;5577;42.706;23.160;2023-02-28T18:48:00;10.93;;;9.30;;